sensor_id;sensor_type;location;lat;lon;timestamp;P1;durP1;ratioP1;P2;durP2;ratioP2
53867;SDS011;41577;47.470;19.080;2023-12-07T00:00:00;12.77;;;9.98;;
53867;SDS011;41577;47.470;19.080;2023-12-07T00:00:15;13.55;;;9.75;;
53867;SDS011;41577;47.470;19.080;2023-12-07T00:00:27;10.95;;;9.20;;
53867;SDS011;41577;47.470;19.080;2023-12-07T00:00:39;11.15;;;9.32;;
53867;SDS011;41577;47.470;19.080;2023-12-07T00:00:50;10.70;;;9.10;;
53867;SDS011;41577;47.470;19.080;2023-12-07T00:01:02;10.40;;;9.30;;
53867;SDS011;41577;47.470;19.080;2023-12-07T00:01:15;10.43;;;8.77;;
53867;SDS011;41577;47.470;19.080;2023-12-07T00:01:27;11.50;;;8.55;;
53867;SDS011;41577;47.470;19.080;2023-12-07T00:01:39;11.80;;;8.32;;
53867;SDS011;41577;47.470;19.080;2023-12-07T00:01:50;9.65;;;8.18;;
53867;SDS011;41577;47.470;19.080;2023-12-07T00:02:02;10.23;;;8.25;;
53867;SDS011;41577;47.470;19.080;2023-12-07T00:02:14;10.75;;;8.35;;
53867;SDS011;41577;47.470;19.080;2023-12-07T00:02:26;11.57;;;8.85;;
53867;SDS011;41577;47.470;19.080;2023-12-07T00:02:38;10.23;;;8.93;;
53867;SDS011;41577;47.470;19.080;2023-12-07T00:02:50;8.95;;;8.02;;
53867;SDS011;41577;47.470;19.080;2023-12-07T00:03:01;9.27;;;8.23;;
53867;SDS011;41577;47.470;19.080;2023-12-07T00:03:13;9.48;;;8.10;;
53867;SDS011;41577;47.470;19.080;2023-12-07T00:03:25;9.07;;;8.00;;
53867;SDS011;41577;47.470;19.080;2023-12-07T00:03:37;9.27;;;8.27;;
53867;SDS011;41577;47.470;19.080;2023-12-07T00:03:49;11.85;;;8.77;;
53867;SDS011;41577;47.470;19.080;2023-12-07T00:04:01;13.10;;;8.98;;
53867;SDS011;41577;47.470;19.080;2023-12-07T00:04:13;12.25;;;8.55;;
53867;SDS011;41577;47.470;19.080;2023-12-07T00:04:24;11.05;;;8.20;;
53867;SDS011;41577;47.470;19.080;2023-12-07T00:04:36;11.18;;;7.70;;
53867;SDS011;41577;47.470;19.080;2023-12-07T00:04:48;12.52;;;7.50;;
53867;SDS011;41577;47.470;19.080;2023-12-07T00:05:00;9.65;;;7.30;;
53867;SDS011;41577;47.470;19.080;2023-12-07T00:05:11;8.63;;;7.55;;
53867;SDS011;41577;47.470;19.080;2023-12-07T00:05:23;8.80;;;7.88;;
53867;SDS011;41577;47.470;19.080;2023-12-07T00:05:35;8.05;;;7.22;;
53867;SDS011;41577;47.470;19.080;2023-12-07T00:05:47;8.05;;;6.75;;
53867;SDS011;41577;47.470;19.080;2023-12-07T00:05:58;7.93;;;6.45;;
53867;SDS011;41577;47.470;19.080;2023-12-07T00:06:10;7.63;;;6.45;;
53867;SDS011;41577;47.470;19.080;2023-12-07T00:06:22;8.15;;;6.97;;
53867;SDS011;41577;47.470;19.080;2023-12-07T00:06:34;8.88;;;7.32;;
53867;SDS011;41577;47.470;19.080;2023-12-07T00:06:45;9.00;;;7.35;;
53867;SDS011;41577;47.470;19.080;2023-12-07T00:06:57;8.27;;;6.88;;
53867;SDS011;41577;47.470;19.080;2023-12-07T00:07:09;8.45;;;7.00;;
53867;SDS011;41577;47.470;19.080;2023-12-07T00:07:21;10.48;;;7.32;;
53867;SDS011;41577;47.470;19.080;2023-12-07T00:07:32;10.75;;;7.53;;
53867;SDS011;41577;47.470;19.080;2023-12-07T00:07:46;12.15;;;7.95;;
53867;SDS011;41577;47.470;19.080;2023-12-07T00:07:58;8.82;;;7.13;;
53867;SDS011;41577;47.470;19.080;2023-12-07T00:08:09;8.77;;;7.05;;
53867;SDS011;41577;47.470;19.080;2023-12-07T00:08:21;7.47;;;6.68;;
53867;SDS011;41577;47.470;19.080;2023-12-07T00:08:33;7.25;;;6.55;;
53867;SDS011;41577;47.470;19.080;2023-12-07T00:08:45;7.00;;;6.35;;
53867;SDS011;41577;47.470;19.080;2023-12-07T00:08:56;8.10;;;6.95;;
53867;SDS011;41577;47.470;19.080;2023-12-07T00:09:08;8.57;;;7.20;;
53867;SDS011;41577;47.470;19.080;2023-12-07T00:09:20;9.43;;;7.28;;
53867;SDS011;41577;47.470;19.080;2023-12-07T00:09:31;8.80;;;6.80;;
53867;SDS011;41577;47.470;19.080;2023-12-07T00:09:43;7.93;;;6.68;;
53867;SDS011;41577;47.470;19.080;2023-12-07T00:09:55;7.68;;;6.95;;
53867;SDS011;41577;47.470;19.080;2023-12-07T00:10:07;7.85;;;7.05;;
53867;SDS011;41577;47.470;19.080;2023-12-07T00:10:20;8.50;;;7.10;;
53867;SDS011;41577;47.470;19.080;2023-12-07T00:10:31;7.95;;;7.05;;
53867;SDS011;41577;47.470;19.080;2023-12-07T00:10:43;8.00;;;7.20;;
53867;SDS011;41577;47.470;19.080;2023-12-07T00:10:55;8.57;;;7.10;;
53867;SDS011;41577;47.470;19.080;2023-12-07T00:11:07;7.93;;;6.78;;
53867;SDS011;41577;47.470;19.080;2023-12-07T00:11:19;7.88;;;6.93;;
53867;SDS011;41577;47.470;19.080;2023-12-07T00:11:32;8.55;;;6.82;;
53867;SDS011;41577;47.470;19.080;2023-12-07T00:11:44;9.10;;;6.82;;
53867;SDS011;41577;47.470;19.080;2023-12-07T00:11:56;8.35;;;7.07;;
53867;SDS011;41577;47.470;19.080;2023-12-07T00:12:08;8.18;;;7.32;;
53867;SDS011;41577;47.470;19.080;2023-12-07T00:12:20;8.38;;;7.00;;
53867;SDS011;41577;47.470;19.080;2023-12-07T00:12:32;7.75;;;6.88;;
53867;SDS011;41577;47.470;19.080;2023-12-07T00:12:43;7.88;;;7.07;;
53867;SDS011;41577;47.470;19.080;2023-12-07T00:12:55;8.43;;;7.32;;
53867;SDS011;41577;47.470;19.080;2023-12-07T00:13:07;9.57;;;7.25;;
53867;SDS011;41577;47.470;19.080;2023-12-07T00:13:19;9.32;;;7.03;;
53867;SDS011;41577;47.470;19.080;2023-12-07T00:13:30;8.15;;;7.07;;
53867;SDS011;41577;47.470;19.080;2023-12-07T00:13:42;8.00;;;7.03;;
53867;SDS011;41577;47.470;19.080;2023-12-07T00:13:54;7.90;;;7.03;;
53867;SDS011;41577;47.470;19.080;2023-12-07T00:14:06;7.97;;;7.18;;
53867;SDS011;41577;47.470;19.080;2023-12-07T00:14:17;7.88;;;6.80;;
53867;SDS011;41577;47.470;19.080;2023-12-07T00:14:29;8.27;;;7.35;;
53867;SDS011;41577;47.470;19.080;2023-12-07T00:14:41;9.85;;;7.50;;
53867;SDS011;41577;47.470;19.080;2023-12-07T00:14:52;9.70;;;7.32;;
53867;SDS011;41577;47.470;19.080;2023-12-07T00:15:05;8.68;;;6.80;;
53867;SDS011;41577;47.470;19.080;2023-12-07T00:15:17;7.63;;;6.85;;
53867;SDS011;41577;47.470;19.080;2023-12-07T00:15:29;8.27;;;7.18;;
53867;SDS011;41577;47.470;19.080;2023-12-07T00:15:41;8.58;;;6.98;;
53867;SDS011;41577;47.470;19.080;2023-12-07T00:15:53;8.27;;;6.60;;
53867;SDS011;41577;47.470;19.080;2023-12-07T00:16:05;8.23;;;7.00;;
53867;SDS011;41577;47.470;19.080;2023-12-07T00:16:17;8.10;;;7.20;;
53867;SDS011;41577;47.470;19.080;2023-12-07T00:16:29;8.02;;;7.00;;
53867;SDS011;41577;47.470;19.080;2023-12-07T00:16:40;9.48;;;7.40;;
53867;SDS011;41577;47.470;19.080;2023-12-07T00:16:52;10.35;;;7.68;;
53867;SDS011;41577;47.470;19.080;2023-12-07T00:17:04;9.30;;;7.40;;
53867;SDS011;41577;47.470;19.080;2023-12-07T00:17:15;8.45;;;7.10;;
53867;SDS011;41577;47.470;19.080;2023-12-07T00:17:27;8.48;;;7.07;;
53867;SDS011;41577;47.470;19.080;2023-12-07T00:17:39;8.25;;;6.85;;
53867;SDS011;41577;47.470;19.080;2023-12-07T00:17:51;7.65;;;6.75;;
53867;SDS011;41577;47.470;19.080;2023-12-07T00:18:03;7.63;;;6.80;;
53867;SDS011;41577;47.470;19.080;2023-12-07T00:18:14;7.53;;;6.72;;
53867;SDS011;41577;47.470;19.080;2023-12-07T00:18:26;9.27;;;6.88;;
53867;SDS011;41577;47.470;19.080;2023-12-07T00:18:38;11.02;;;7.45;;
53867;SDS011;41577;47.470;19.080;2023-12-07T00:18:50;11.63;;;7.55;;
53867;SDS011;41577;47.470;19.080;2023-12-07T00:19:01;9.63;;;7.40;;
53867;SDS011;41577;47.470;19.080;2023-12-07T00:19:13;10.73;;;7.43;;
53867;SDS011;41577;47.470;19.080;2023-12-07T00:19:25;11.07;;;7.72;;
53867;SDS011;41577;47.470;19.080;2023-12-07T00:19:37;9.20;;;7.57;;
53867;SDS011;41577;47.470;19.080;2023-12-07T00:19:50;8.63;;;7.43;;
53867;SDS011;41577;47.470;19.080;2023-12-07T00:20:02;7.93;;;6.93;;
53867;SDS011;41577;47.470;19.080;2023-12-07T00:20:14;7.38;;;6.68;;
53867;SDS011;41577;47.470;19.080;2023-12-07T00:20:26;7.68;;;6.90;;
53867;SDS011;41577;47.470;19.080;2023-12-07T00:20:38;8.10;;;7.30;;
53867;SDS011;41577;47.470;19.080;2023-12-07T00:20:49;8.05;;;7.25;;
53867;SDS011;41577;47.470;19.080;2023-12-07T00:21:01;7.40;;;6.45;;
53867;SDS011;41577;47.470;19.080;2023-12-07T00:21:13;7.70;;;6.70;;
53867;SDS011;41577;47.470;19.080;2023-12-07T00:21:25;8.07;;;7.15;;
53867;SDS011;41577;47.470;19.080;2023-12-07T00:21:37;8.02;;;7.13;;
53867;SDS011;41577;47.470;19.080;2023-12-07T00:21:48;8.65;;;7.20;;
53867;SDS011;41577;47.470;19.080;2023-12-07T00:22:00;7.88;;;6.90;;
53867;SDS011;41577;47.470;19.080;2023-12-07T00:22:12;8.57;;;6.82;;
53867;SDS011;41577;47.470;19.080;2023-12-07T00:22:24;9.48;;;7.34;;
53867;SDS011;41577;47.470;19.080;2023-12-07T00:22:36;10.00;;;7.28;;
53867;SDS011;41577;47.470;19.080;2023-12-07T00:22:49;10.02;;;7.30;;
53867;SDS011;41577;47.470;19.080;2023-12-07T00:23:01;10.40;;;7.38;;
53867;SDS011;41577;47.470;19.080;2023-12-07T00:23:13;9.55;;;7.22;;
53867;SDS011;41577;47.470;19.080;2023-12-07T00:23:24;7.90;;;6.85;;
53867;SDS011;41577;47.470;19.080;2023-12-07T00:23:36;7.57;;;6.85;;
53867;SDS011;41577;47.470;19.080;2023-12-07T00:23:48;8.15;;;7.15;;
53867;SDS011;41577;47.470;19.080;2023-12-07T00:24:00;9.57;;;7.38;;
53867;SDS011;41577;47.470;19.080;2023-12-07T00:24:11;9.70;;;7.28;;
53867;SDS011;41577;47.470;19.080;2023-12-07T00:24:23;9.25;;;7.10;;
53867;SDS011;41577;47.470;19.080;2023-12-07T00:24:35;8.90;;;6.80;;
53867;SDS011;41577;47.470;19.080;2023-12-07T00:24:47;7.85;;;6.57;;
53867;SDS011;41577;47.470;19.080;2023-12-07T00:24:58;7.75;;;6.82;;
53867;SDS011;41577;47.470;19.080;2023-12-07T00:25:10;7.93;;;7.13;;
53867;SDS011;41577;47.470;19.080;2023-12-07T00:25:22;9.23;;;7.20;;
53867;SDS011;41577;47.470;19.080;2023-12-07T00:25:34;9.30;;;6.97;;
53867;SDS011;41577;47.470;19.080;2023-12-07T00:25:46;8.05;;;6.40;;
53867;SDS011;41577;47.470;19.080;2023-12-07T00:25:57;7.35;;;6.65;;
53867;SDS011;41577;47.470;19.080;2023-12-07T00:26:09;7.25;;;6.55;;
53867;SDS011;41577;47.470;19.080;2023-12-07T00:26:21;7.15;;;6.43;;
53867;SDS011;41577;47.470;19.080;2023-12-07T00:26:32;8.07;;;6.53;;
53867;SDS011;41577;47.470;19.080;2023-12-07T00:26:44;8.73;;;6.65;;
53867;SDS011;41577;47.470;19.080;2023-12-07T00:26:56;7.70;;;6.20;;
53867;SDS011;41577;47.470;19.080;2023-12-07T00:27:08;7.43;;;6.07;;
53867;SDS011;41577;47.470;19.080;2023-12-07T00:27:19;7.70;;;6.28;;
53867;SDS011;41577;47.470;19.080;2023-12-07T00:27:31;8.52;;;6.57;;
53867;SDS011;41577;47.470;19.080;2023-12-07T00:27:43;9.13;;;6.35;;
53867;SDS011;41577;47.470;19.080;2023-12-07T00:27:54;7.43;;;6.20;;
53867;SDS011;41577;47.470;19.080;2023-12-07T00:28:06;6.60;;;5.97;;
53867;SDS011;41577;47.470;19.080;2023-12-07T00:28:18;8.05;;;6.43;;
53867;SDS011;41577;47.470;19.080;2023-12-07T00:28:30;8.70;;;6.20;;
53867;SDS011;41577;47.470;19.080;2023-12-07T00:28:41;7.75;;;5.70;;
53867;SDS011;41577;47.470;19.080;2023-12-07T00:28:53;6.57;;;5.55;;
53867;SDS011;41577;47.470;19.080;2023-12-07T00:29:05;6.10;;;5.30;;
53867;SDS011;41577;47.470;19.080;2023-12-07T00:29:16;5.90;;;5.10;;
53867;SDS011;41577;47.470;19.080;2023-12-07T00:29:28;5.78;;;5.18;;
53867;SDS011;41577;47.470;19.080;2023-12-07T00:29:40;5.75;;;5.18;;
53867;SDS011;41577;47.470;19.080;2023-12-07T00:29:52;5.70;;;5.20;;
53867;SDS011;41577;47.470;19.080;2023-12-07T00:30:04;5.78;;;5.28;;
53867;SDS011;41577;47.470;19.080;2023-12-07T00:30:16;7.70;;;5.38;;
53867;SDS011;41577;47.470;19.080;2023-12-07T00:30:28;7.55;;;5.00;;
53867;SDS011;41577;47.470;19.080;2023-12-07T00:30:39;6.65;;;4.75;;
53867;SDS011;41577;47.470;19.080;2023-12-07T00:30:51;5.10;;;4.60;;
53867;SDS011;41577;47.470;19.080;2023-12-07T00:31:03;5.95;;;5.00;;
53867;SDS011;41577;47.470;19.080;2023-12-07T00:31:15;5.76;;;5.16;;
53867;SDS011;41577;47.470;19.080;2023-12-07T00:31:27;5.38;;;4.88;;
53867;SDS011;41577;47.470;19.080;2023-12-07T00:31:39;6.35;;;5.20;;
53867;SDS011;41577;47.470;19.080;2023-12-07T00:31:50;6.75;;;5.40;;
53867;SDS011;41577;47.470;19.080;2023-12-07T00:32:02;7.15;;;5.47;;
53867;SDS011;41577;47.470;19.080;2023-12-07T00:32:14;6.45;;;5.38;;
53867;SDS011;41577;47.470;19.080;2023-12-07T00:32:26;6.80;;;5.57;;
53867;SDS011;41577;47.470;19.080;2023-12-07T00:32:38;6.22;;;5.40;;
53867;SDS011;41577;47.470;19.080;2023-12-07T00:32:50;6.22;;;5.35;;
53867;SDS011;41577;47.470;19.080;2023-12-07T00:33:02;5.96;;;5.10;;
53867;SDS011;41577;47.470;19.080;2023-12-07T00:33:13;6.03;;;5.32;;
53867;SDS011;41577;47.470;19.080;2023-12-07T00:33:25;5.97;;;5.32;;
53867;SDS011;41577;47.470;19.080;2023-12-07T00:33:37;6.47;;;5.38;;
53867;SDS011;41577;47.470;19.080;2023-12-07T00:33:49;6.35;;;5.03;;
53867;SDS011;41577;47.470;19.080;2023-12-07T00:34:00;6.72;;;5.10;;
53867;SDS011;41577;47.470;19.080;2023-12-07T00:34:12;6.40;;;5.03;;
53867;SDS011;41577;47.470;19.080;2023-12-07T00:34:24;6.15;;;4.82;;
53867;SDS011;41577;47.470;19.080;2023-12-07T00:34:35;5.97;;;4.60;;
53867;SDS011;41577;47.470;19.080;2023-12-07T00:34:47;5.97;;;4.90;;
53867;SDS011;41577;47.470;19.080;2023-12-07T00:34:59;6.38;;;4.93;;
53867;SDS011;41577;47.470;19.080;2023-12-07T00:35:11;5.93;;;5.07;;
53867;SDS011;41577;47.470;19.080;2023-12-07T00:35:23;6.88;;;5.15;;
53867;SDS011;41577;47.470;19.080;2023-12-07T00:35:34;6.35;;;4.90;;
53867;SDS011;41577;47.470;19.080;2023-12-07T00:35:46;5.72;;;4.80;;
53867;SDS011;41577;47.470;19.080;2023-12-07T00:35:58;5.15;;;4.65;;
53867;SDS011;41577;47.470;19.080;2023-12-07T00:36:10;5.50;;;4.90;;
53867;SDS011;41577;47.470;19.080;2023-12-07T00:36:21;5.82;;;5.10;;
53867;SDS011;41577;47.470;19.080;2023-12-07T00:36:33;5.93;;;5.20;;
53867;SDS011;41577;47.470;19.080;2023-12-07T00:36:45;5.93;;;5.32;;
53867;SDS011;41577;47.470;19.080;2023-12-07T00:36:56;5.60;;;5.05;;
53867;SDS011;41577;47.470;19.080;2023-12-07T00:37:08;5.43;;;4.93;;
53867;SDS011;41577;47.470;19.080;2023-12-07T00:37:20;6.00;;;5.30;;
53867;SDS011;41577;47.470;19.080;2023-12-07T00:37:32;5.80;;;5.20;;
53867;SDS011;41577;47.470;19.080;2023-12-07T00:37:43;5.00;;;4.55;;
53867;SDS011;41577;47.470;19.080;2023-12-07T00:37:57;5.45;;;4.55;;
53867;SDS011;41577;47.470;19.080;2023-12-07T00:38:08;5.68;;;4.75;;
53867;SDS011;41577;47.470;19.080;2023-12-07T00:38:20;5.68;;;4.70;;
53867;SDS011;41577;47.470;19.080;2023-12-07T00:38:32;5.63;;;4.72;;
53867;SDS011;41577;47.470;19.080;2023-12-07T00:38:43;5.97;;;4.70;;
53867;SDS011;41577;47.470;19.080;2023-12-07T00:38:55;5.75;;;4.57;;
53867;SDS011;41577;47.470;19.080;2023-12-07T00:39:07;5.38;;;4.60;;
53867;SDS011;41577;47.470;19.080;2023-12-07T00:39:19;5.32;;;4.82;;
53867;SDS011;41577;47.470;19.080;2023-12-07T00:39:30;5.18;;;4.78;;
53867;SDS011;41577;47.470;19.080;2023-12-07T00:39:42;5.35;;;4.85;;
53867;SDS011;41577;47.470;19.080;2023-12-07T00:39:54;5.35;;;4.70;;
53867;SDS011;41577;47.470;19.080;2023-12-07T00:40:06;5.35;;;4.78;;
53867;SDS011;41577;47.470;19.080;2023-12-07T00:40:18;5.43;;;4.93;;
53867;SDS011;41577;47.470;19.080;2023-12-07T00:40:30;5.82;;;4.80;;
53867;SDS011;41577;47.470;19.080;2023-12-07T00:40:42;6.03;;;4.90;;
53867;SDS011;41577;47.470;19.080;2023-12-07T00:40:53;5.53;;;4.53;;
53867;SDS011;41577;47.470;19.080;2023-12-07T00:41:05;4.82;;;4.38;;
53867;SDS011;41577;47.470;19.080;2023-12-07T00:41:17;5.07;;;4.60;;
53867;SDS011;41577;47.470;19.080;2023-12-07T00:41:29;5.90;;;5.20;;
53867;SDS011;41577;47.470;19.080;2023-12-07T00:41:40;6.57;;;5.45;;
53867;SDS011;41577;47.470;19.080;2023-12-07T00:41:52;6.45;;;5.30;;
53867;SDS011;41577;47.470;19.080;2023-12-07T00:42:04;6.16;;;5.02;;
53867;SDS011;41577;47.470;19.080;2023-12-07T00:42:16;5.55;;;4.97;;
53867;SDS011;41577;47.470;19.080;2023-12-07T00:42:27;5.40;;;4.90;;
53867;SDS011;41577;47.470;19.080;2023-12-07T00:42:39;5.35;;;4.85;;
53867;SDS011;41577;47.470;19.080;2023-12-07T00:42:51;5.07;;;4.68;;
53867;SDS011;41577;47.470;19.080;2023-12-07T00:43:02;5.32;;;4.82;;
53867;SDS011;41577;47.470;19.080;2023-12-07T00:43:14;5.28;;;4.78;;
53867;SDS011;41577;47.470;19.080;2023-12-07T00:43:26;5.22;;;4.68;;
53867;SDS011;41577;47.470;19.080;2023-12-07T00:43:38;5.00;;;4.52;;
53867;SDS011;41577;47.470;19.080;2023-12-07T00:43:49;4.70;;;4.30;;
53867;SDS011;41577;47.470;19.080;2023-12-07T00:44:01;4.95;;;4.55;;
53867;SDS011;41577;47.470;19.080;2023-12-07T00:44:13;6.10;;;4.72;;
53867;SDS011;41577;47.470;19.080;2023-12-07T00:44:24;7.64;;;4.90;;
53867;SDS011;41577;47.470;19.080;2023-12-07T00:44:38;7.22;;;4.75;;
53867;SDS011;41577;47.470;19.080;2023-12-07T00:44:50;5.10;;;4.60;;
53867;SDS011;41577;47.470;19.080;2023-12-07T00:45:02;5.35;;;4.57;;
53867;SDS011;41577;47.470;19.080;2023-12-07T00:45:14;6.57;;;4.70;;
53867;SDS011;41577;47.470;19.080;2023-12-07T00:45:26;5.78;;;4.50;;
53867;SDS011;41577;47.470;19.080;2023-12-07T00:45:38;7.40;;;4.80;;
53867;SDS011;41577;47.470;19.080;2023-12-07T00:45:50;7.43;;;4.65;;
53867;SDS011;41577;47.470;19.080;2023-12-07T00:46:01;5.82;;;4.43;;
53867;SDS011;41577;47.470;19.080;2023-12-07T00:46:13;4.85;;;4.35;;
53867;SDS011;41577;47.470;19.080;2023-12-07T00:46:25;5.57;;;4.38;;
53867;SDS011;41577;47.470;19.080;2023-12-07T00:46:37;6.45;;;4.40;;
53867;SDS011;41577;47.470;19.080;2023-12-07T00:46:48;6.07;;;4.43;;
53867;SDS011;41577;47.470;19.080;2023-12-07T00:47:00;5.85;;;4.38;;
53867;SDS011;41577;47.470;19.080;2023-12-07T00:47:12;4.78;;;4.25;;
53867;SDS011;41577;47.470;19.080;2023-12-07T00:47:23;4.97;;;4.40;;
53867;SDS011;41577;47.470;19.080;2023-12-07T00:47:35;4.85;;;4.35;;
53867;SDS011;41577;47.470;19.080;2023-12-07T00:47:47;5.00;;;4.38;;
53867;SDS011;41577;47.470;19.080;2023-12-07T00:47:59;6.95;;;4.28;;
53867;SDS011;41577;47.470;19.080;2023-12-07T00:48:10;8.63;;;4.47;;
53867;SDS011;41577;47.470;19.080;2023-12-07T00:48:22;7.82;;;4.55;;
53867;SDS011;41577;47.470;19.080;2023-12-07T00:48:34;5.28;;;4.40;;
53867;SDS011;41577;47.470;19.080;2023-12-07T00:48:46;4.63;;;4.30;;
53867;SDS011;41577;47.470;19.080;2023-12-07T00:48:58;4.60;;;4.20;;
53867;SDS011;41577;47.470;19.080;2023-12-07T00:49:10;5.35;;;4.20;;
53867;SDS011;41577;47.470;19.080;2023-12-07T00:49:21;5.10;;;4.07;;
53867;SDS011;41577;47.470;19.080;2023-12-07T00:49:33;4.95;;;4.35;;
53867;SDS011;41577;47.470;19.080;2023-12-07T00:49:48;4.60;;;4.20;;
53867;SDS011;41577;47.470;19.080;2023-12-07T00:50:00;4.85;;;4.35;;
53867;SDS011;41577;47.470;19.080;2023-12-07T00:50:12;4.90;;;4.40;;
53867;SDS011;41577;47.470;19.080;2023-12-07T00:50:24;5.32;;;4.22;;
53867;SDS011;41577;47.470;19.080;2023-12-07T00:50:35;4.90;;;4.15;;
53867;SDS011;41577;47.470;19.080;2023-12-07T00:50:47;4.93;;;4.45;;
53867;SDS011;41577;47.470;19.080;2023-12-07T00:50:59;5.07;;;4.53;;
53867;SDS011;41577;47.470;19.080;2023-12-07T00:51:10;5.40;;;4.50;;
53867;SDS011;41577;47.470;19.080;2023-12-07T00:51:22;5.80;;;4.72;;
53867;SDS011;41577;47.470;19.080;2023-12-07T00:51:34;5.15;;;4.53;;
53867;SDS011;41577;47.470;19.080;2023-12-07T00:51:46;4.65;;;4.13;;
53867;SDS011;41577;47.470;19.080;2023-12-07T00:51:57;4.22;;;3.80;;
53867;SDS011;41577;47.470;19.080;2023-12-07T00:52:09;4.70;;;4.20;;
53867;SDS011;41577;47.470;19.080;2023-12-07T00:52:21;4.95;;;4.53;;
53867;SDS011;41577;47.470;19.080;2023-12-07T00:52:33;4.85;;;4.35;;
53867;SDS011;41577;47.470;19.080;2023-12-07T00:52:45;5.40;;;4.20;;
53867;SDS011;41577;47.470;19.080;2023-12-07T00:52:58;5.72;;;4.10;;
53867;SDS011;41577;47.470;19.080;2023-12-07T00:53:10;4.95;;;4.15;;
53867;SDS011;41577;47.470;19.080;2023-12-07T00:53:22;5.40;;;4.40;;
53867;SDS011;41577;47.470;19.080;2023-12-07T00:53:33;5.60;;;4.53;;
53867;SDS011;41577;47.470;19.080;2023-12-07T00:53:45;5.07;;;4.38;;
53867;SDS011;41577;47.470;19.080;2023-12-07T00:53:57;5.13;;;4.40;;
53867;SDS011;41577;47.470;19.080;2023-12-07T00:54:09;4.85;;;4.00;;
53867;SDS011;41577;47.470;19.080;2023-12-07T00:54:20;5.57;;;4.07;;
53867;SDS011;41577;47.470;19.080;2023-12-07T00:54:32;4.75;;;3.90;;
53867;SDS011;41577;47.470;19.080;2023-12-07T00:54:44;6.10;;;4.32;;
53867;SDS011;41577;47.470;19.080;2023-12-07T00:54:55;5.85;;;4.40;;
53867;SDS011;41577;47.470;19.080;2023-12-07T00:55:22;5.05;;;3.88;;
53867;SDS011;41577;47.470;19.080;2023-12-07T00:55:34;4.75;;;3.67;;
53867;SDS011;41577;47.470;19.080;2023-12-07T00:55:46;5.10;;;3.95;;
53867;SDS011;41577;47.470;19.080;2023-12-07T00:55:58;4.80;;;3.90;;
53867;SDS011;41577;47.470;19.080;2023-12-07T00:56:09;4.90;;;3.92;;
53867;SDS011;41577;47.470;19.080;2023-12-07T00:56:21;4.72;;;4.22;;
53867;SDS011;41577;47.470;19.080;2023-12-07T00:56:33;4.68;;;4.28;;
53867;SDS011;41577;47.470;19.080;2023-12-07T00:56:44;4.50;;;4.10;;
53867;SDS011;41577;47.470;19.080;2023-12-07T00:56:56;4.20;;;3.80;;
53867;SDS011;41577;47.470;19.080;2023-12-07T00:57:08;4.20;;;3.80;;
53867;SDS011;41577;47.470;19.080;2023-12-07T00:57:20;4.47;;;4.07;;
53867;SDS011;41577;47.470;19.080;2023-12-07T00:57:31;4.45;;;3.97;;
53867;SDS011;41577;47.470;19.080;2023-12-07T00:57:43;5.47;;;4.25;;
53867;SDS011;41577;47.470;19.080;2023-12-07T00:57:55;4.82;;;4.20;;
53867;SDS011;41577;47.470;19.080;2023-12-07T00:58:06;4.50;;;4.10;;
53867;SDS011;41577;47.470;19.080;2023-12-07T00:58:18;4.90;;;3.90;;
53867;SDS011;41577;47.470;19.080;2023-12-07T00:58:30;5.45;;;3.88;;
53867;SDS011;41577;47.470;19.080;2023-12-07T00:58:42;5.30;;;3.88;;
53867;SDS011;41577;47.470;19.080;2023-12-07T00:58:54;4.40;;;3.72;;
53867;SDS011;41577;47.470;19.080;2023-12-07T00:59:05;4.72;;;4.18;;
53867;SDS011;41577;47.470;19.080;2023-12-07T00:59:17;4.50;;;4.10;;
53867;SDS011;41577;47.470;19.080;2023-12-07T00:59:29;4.88;;;4.38;;
53867;SDS011;41577;47.470;19.080;2023-12-07T00:59:40;4.38;;;3.97;;
53867;SDS011;41577;47.470;19.080;2023-12-07T00:59:52;4.90;;;4.18;;
53867;SDS011;41577;47.470;19.080;2023-12-07T01:00:04;4.47;;;4.07;;
53867;SDS011;41577;47.470;19.080;2023-12-07T01:00:17;4.28;;;3.88;;
53867;SDS011;41577;47.470;19.080;2023-12-07T01:00:29;4.18;;;3.78;;
53867;SDS011;41577;47.470;19.080;2023-12-07T01:00:41;4.05;;;3.65;;
53867;SDS011;41577;47.470;19.080;2023-12-07T01:00:52;4.22;;;3.80;;
53867;SDS011;41577;47.470;19.080;2023-12-07T01:01:04;4.70;;;3.88;;
53867;SDS011;41577;47.470;19.080;2023-12-07T01:01:16;5.13;;;3.83;;
53867;SDS011;41577;47.470;19.080;2023-12-07T01:01:28;4.40;;;3.85;;
53867;SDS011;41577;47.470;19.080;2023-12-07T01:01:40;4.28;;;3.90;;
53867;SDS011;41577;47.470;19.080;2023-12-07T01:01:52;4.10;;;3.80;;
53867;SDS011;41577;47.470;19.080;2023-12-07T01:02:03;4.05;;;3.65;;
53867;SDS011;41577;47.470;19.080;2023-12-07T01:02:15;3.85;;;3.45;;
53867;SDS011;41577;47.470;19.080;2023-12-07T01:02:27;4.05;;;3.55;;
53867;SDS011;41577;47.470;19.080;2023-12-07T01:02:39;4.80;;;3.90;;
53867;SDS011;41577;47.470;19.080;2023-12-07T01:02:50;4.82;;;4.28;;
53867;SDS011;41577;47.470;19.080;2023-12-07T01:03:02;4.45;;;4.05;;
53867;SDS011;41577;47.470;19.080;2023-12-07T01:03:14;4.32;;;3.85;;
53867;SDS011;41577;47.470;19.080;2023-12-07T01:03:26;4.43;;;3.40;;
53867;SDS011;41577;47.470;19.080;2023-12-07T01:03:37;4.25;;;3.30;;
53867;SDS011;41577;47.470;19.080;2023-12-07T01:03:49;5.32;;;3.35;;
53867;SDS011;41577;47.470;19.080;2023-12-07T01:04:01;5.07;;;3.50;;
53867;SDS011;41577;47.470;19.080;2023-12-07T01:04:13;4.88;;;3.60;;
53867;SDS011;41577;47.470;19.080;2023-12-07T01:04:24;4.00;;;3.60;;
53867;SDS011;41577;47.470;19.080;2023-12-07T01:04:36;3.63;;;3.33;;
53867;SDS011;41577;47.470;19.080;2023-12-07T01:04:48;3.42;;;3.22;;
53867;SDS011;41577;47.470;19.080;2023-12-07T01:05:00;4.18;;;3.78;;
53867;SDS011;41577;47.470;19.080;2023-12-07T01:05:12;4.65;;;3.80;;
53867;SDS011;41577;47.470;19.080;2023-12-07T01:05:23;3.88;;;3.35;;
53867;SDS011;41577;47.470;19.080;2023-12-07T01:05:35;3.70;;;3.35;;
53867;SDS011;41577;47.470;19.080;2023-12-07T01:05:47;3.88;;;3.47;;
53867;SDS011;41577;47.470;19.080;2023-12-07T01:05:59;4.50;;;3.60;;
53867;SDS011;41577;47.470;19.080;2023-12-07T01:06:11;4.82;;;3.47;;
53867;SDS011;41577;47.470;19.080;2023-12-07T01:06:23;4.53;;;3.30;;
53867;SDS011;41577;47.470;19.080;2023-12-07T01:06:35;4.25;;;3.20;;
53867;SDS011;41577;47.470;19.080;2023-12-07T01:06:46;4.22;;;3.50;;
53867;SDS011;41577;47.470;19.080;2023-12-07T01:06:58;3.83;;;3.53;;
53867;SDS011;41577;47.470;19.080;2023-12-07T01:07:12;3.90;;;3.53;;
53867;SDS011;41577;47.470;19.080;2023-12-07T01:07:23;3.60;;;3.28;;
53867;SDS011;41577;47.470;19.080;2023-12-07T01:07:35;3.42;;;3.13;;
53867;SDS011;41577;47.470;19.080;2023-12-07T01:07:47;3.25;;;2.97;;
53867;SDS011;41577;47.470;19.080;2023-12-07T01:08:00;3.58;;;3.28;;
53867;SDS011;41577;47.470;19.080;2023-12-07T01:08:12;3.80;;;3.40;;
53867;SDS011;41577;47.470;19.080;2023-12-07T01:08:23;4.03;;;3.42;;
53867;SDS011;41577;47.470;19.080;2023-12-07T01:08:35;5.35;;;3.17;;
53867;SDS011;41577;47.470;19.080;2023-12-07T01:08:47;5.82;;;3.35;;
53867;SDS011;41577;47.470;19.080;2023-12-07T01:08:58;5.43;;;3.30;;
53867;SDS011;41577;47.470;19.080;2023-12-07T01:09:10;3.40;;;3.20;;
53867;SDS011;41577;47.470;19.080;2023-12-07T01:09:22;3.75;;;3.45;;
53867;SDS011;41577;47.470;19.080;2023-12-07T01:09:34;4.13;;;3.67;;
53867;SDS011;41577;47.470;19.080;2023-12-07T01:09:46;4.20;;;3.67;;
53867;SDS011;41577;47.470;19.080;2023-12-07T01:09:57;3.88;;;3.47;;
53867;SDS011;41577;47.470;19.080;2023-12-07T01:10:09;3.70;;;3.40;;
53867;SDS011;41577;47.470;19.080;2023-12-07T01:10:21;3.60;;;3.30;;